createdAt,value
2022-08-10T00:01:31.785Z,99.90
2022-08-10T00:04:01.358Z,99.90
2022-08-10T00:06:28.460Z,99.90
2022-08-10T00:08:55.493Z,99.90
2022-08-10T00:11:22.712Z,99.90
2022-08-10T00:13:50.293Z,99.90
2022-08-10T00:16:18.357Z,99.90
2022-08-10T00:18:45.347Z,99.90
2022-08-10T00:21:12.262Z,99.90
2022-08-10T00:23:39.864Z,99.90
2022-08-10T00:26:12.852Z,99.90
2022-08-10T00:28:40.132Z,99.90
2022-08-10T00:31:07.222Z,99.90
2022-08-10T00:33:34.254Z,99.90
2022-08-10T00:36:01.125Z,99.90
2022-08-10T00:38:28.048Z,99.90
2022-08-10T00:40:54.940Z,99.90
2022-08-10T00:43:23.956Z,99.90
2022-08-10T00:45:58.778Z,99.90
2022-08-10T00:48:29.089Z,99.90
2022-08-10T00:50:57.762Z,99.90
2022-08-10T00:53:26.304Z,99.90
2022-08-10T00:57:12.772Z,99.90
2022-08-10T00:58:41.564Z,99.90
2022-08-10T01:01:08.419Z,99.90
2022-08-10T01:04:40.206Z,99.90
2022-08-10T01:07:04.640Z,99.90
2022-08-10T01:10:09.162Z,99.90
2022-08-10T01:13:00.711Z,99.90
2022-08-10T01:15:29.959Z,99.90
2022-08-10T01:18:04.486Z,99.90
2022-08-10T01:20:55.070Z,99.90
2022-08-10T01:24:00.848Z,99.90
2022-08-10T01:26:49.205Z,99.90
2022-08-10T01:34:57.916Z,99.90
2022-08-10T01:37:32.242Z,99.90
2022-08-10T01:40:02.430Z,99.90
2022-08-10T01:42:37.479Z,99.90
2022-08-10T01:45:09.082Z,99.90
2022-08-10T01:48:01.855Z,99.90
2022-08-10T01:50:53.332Z,99.90
2022-08-10T01:53:40.312Z,99.90
2022-08-10T01:56:12.368Z,99.90
2022-08-10T01:58:40.770Z,99.90
2022-08-10T02:01:11.110Z,99.90
2022-08-10T02:04:04.523Z,99.90
2022-08-10T02:06:37.232Z,99.90
2022-08-10T02:09:07.145Z,99.90
2022-08-10T02:12:06.318Z,99.90
2022-08-10T02:14:32.980Z,99.90
2022-08-10T02:17:06.848Z,99.90
2022-08-10T02:19:36.701Z,99.90
2022-08-10T02:22:35.063Z,99.90
2022-08-10T02:24:56.872Z,99.90
2022-08-10T02:27:26.864Z,99.90
2022-08-10T02:29:55.596Z,99.90
2022-08-10T02:32:36.139Z,99.90
2022-08-10T02:35:08.770Z,99.90
2022-08-10T02:37:51.420Z,99.90
2022-08-10T02:45:12.427Z,99.90
2022-08-10T02:45:22.799Z,99.90
2022-08-10T02:46:26.342Z,99.90
2022-08-10T02:49:04.765Z,99.90
2022-08-10T02:52:06.612Z,99.90
2022-08-10T02:54:39.732Z,99.90
2022-08-10T02:57:16.392Z,99.90
2022-08-10T02:59:51.026Z,99.90
2022-08-10T03:02:42.055Z,99.90
2022-08-10T03:05:12.066Z,99.90
2022-08-10T03:08:05.851Z,99.90
2022-08-10T03:10:39.736Z,99.90
2022-08-10T03:13:11.031Z,99.90
2022-08-10T03:15:40.169Z,99.90
2022-08-10T03:18:09.046Z,99.90
2022-08-10T03:20:40.083Z,99.90
2022-08-10T03:23:14.162Z,99.90
2022-08-10T03:25:53.408Z,99.90
2022-08-10T03:28:29.487Z,99.90
2022-08-10T03:30:59.058Z,99.90
2022-08-10T03:33:29.905Z,99.90
2022-08-10T03:36:42.275Z,99.90
2022-08-10T03:38:48.701Z,99.90
2022-08-10T03:41:18.336Z,99.90
2022-08-10T03:43:50.932Z,99.90
2022-08-10T03:46:21.882Z,99.90
2022-08-10T03:48:53.988Z,99.90
2022-08-10T03:51:22.640Z,99.90
2022-08-10T03:54:02.964Z,99.90
2022-08-10T03:56:37.239Z,99.90
2022-08-10T03:59:05.612Z,99.90
2022-08-10T04:02:43.417Z,99.90
2022-08-10T04:04:24.717Z,99.90
2022-08-10T04:06:57.102Z,99.90
2022-08-10T04:09:29.756Z,99.90
2022-08-10T04:12:15.569Z,99.90
2022-08-10T04:14:51.002Z,99.90
2022-08-10T04:18:00.220Z,99.90
2022-08-10T04:20:18.046Z,99.90
2022-08-10T04:22:51.240Z,99.90
2022-08-10T04:25:19.735Z,99.90
2022-08-10T04:27:47.425Z,99.90
2022-08-10T04:30:15.135Z,99.90
2022-08-10T04:32:43.309Z,99.90
2022-08-10T04:35:12.365Z,99.90
2022-08-10T04:37:47.244Z,99.90
2022-08-10T04:40:28.862Z,99.90
2022-08-10T04:43:02.335Z,99.90
2022-08-10T04:45:49.167Z,99.90
2022-08-10T04:48:41.017Z,99.90
2022-08-10T04:51:04.299Z,99.90
2022-08-10T04:53:31.270Z,99.90
2022-08-10T04:55:58.963Z,99.90
2022-08-10T04:58:26.854Z,99.90
2022-08-10T05:00:53.999Z,99.90
2022-08-10T05:03:21.164Z,99.90
2022-08-10T05:05:48.323Z,99.90
2022-08-10T05:08:18.225Z,99.90
2022-08-10T05:10:45.363Z,99.90
2022-08-10T05:13:14.597Z,99.90
2022-08-10T05:15:43.959Z,99.90
2022-08-10T05:18:12.981Z,99.90
2022-08-10T05:20:39.970Z,99.90
2022-08-10T05:23:07.489Z,99.90
2022-08-10T05:25:38.260Z,99.90
2022-08-10T05:28:06.960Z,99.90
2022-08-10T05:30:34.399Z,99.90
2022-08-10T05:33:04.971Z,99.90
2022-08-10T05:35:55.130Z,99.90
2022-08-10T05:38:25.638Z,99.90
2022-08-10T05:40:53.983Z,99.90
2022-08-10T05:43:22.255Z,99.90
2022-08-10T05:46:18.350Z,99.90
2022-08-10T05:48:59.297Z,99.90
2022-08-10T05:51:29.857Z,99.90
2022-08-10T05:54:01.790Z,99.90
2022-08-10T05:56:53.742Z,99.90
2022-08-10T06:00:29.412Z,99.90
2022-08-10T06:02:41.451Z,99.90
2022-08-10T06:05:11.708Z,99.90
2022-08-10T06:07:41.699Z,99.90
2022-08-10T06:10:12.690Z,99.90
2022-08-10T06:12:54.016Z,99.90
2022-08-10T06:15:51.588Z,99.90
2022-08-10T06:18:16.783Z,99.90
2022-08-10T06:20:44.284Z,99.90
2022-08-10T06:23:12.396Z,99.90
2022-08-10T06:26:12.119Z,99.90
2022-08-10T06:28:30.850Z,99.90
2022-08-10T06:30:58.433Z,99.90
2022-08-10T06:33:26.884Z,99.90
2022-08-10T06:35:56.384Z,99.90
2022-08-10T06:38:25.004Z,99.90
2022-08-10T06:40:56.789Z,99.90
2022-08-10T06:43:25.897Z,99.90
2022-08-10T06:46:06.938Z,99.90
2022-08-10T06:48:46.993Z,99.90
2022-08-10T06:51:18.160Z,99.90
2022-08-10T06:53:54.724Z,99.90
2022-08-10T06:56:36.687Z,99.90
2022-08-10T06:59:22.442Z,99.90
2022-08-10T07:02:05.410Z,99.90
2022-08-10T07:04:59.635Z,99.90
2022-08-10T07:07:29.946Z,99.90
2022-08-10T07:09:58.764Z,99.90
2022-08-10T07:12:26.798Z,99.90
2022-08-10T07:14:55.577Z,99.90
2022-08-10T07:17:24.971Z,99.90
2022-08-10T07:20:02.124Z,99.90
2022-08-10T07:23:27.060Z,99.90
2022-08-10T07:25:25.172Z,99.90
2022-08-10T07:28:00.459Z,99.90
2022-08-10T07:30:36.896Z,99.90
2022-08-10T07:33:05.774Z,99.90
2022-08-10T07:35:43.355Z,99.90
2022-08-10T07:38:27.092Z,99.90
2022-08-10T07:40:54.825Z,99.90
2022-08-10T07:43:27.939Z,99.90
2022-08-10T07:45:57.550Z,99.90
2022-08-10T07:48:32.823Z,99.90
2022-08-10T07:51:02.957Z,99.90
2022-08-10T07:53:38.608Z,99.90
2022-08-10T07:56:26.019Z,99.90
2022-08-10T07:59:00.120Z,99.90
2022-08-10T08:01:31.840Z,99.90
2022-08-10T08:04:11.378Z,99.90
2022-08-10T08:06:42.806Z,99.90
2022-08-10T08:09:11.249Z,99.90
2022-08-10T08:11:42.083Z,99.90
2022-08-10T08:14:11.506Z,99.90
2022-08-10T08:16:45.614Z,99.90
2022-08-10T08:19:37.959Z,99.90
2022-08-10T08:24:08.725Z,99.90
2022-08-10T08:24:52.361Z,99.90
2022-08-10T08:27:21.410Z,99.90
2022-08-10T08:29:49.579Z,99.90
2022-08-10T08:32:19.667Z,99.90
2022-08-10T08:34:48.448Z,99.90
2022-08-10T08:38:32.683Z,99.90
2022-08-10T08:40:13.629Z,99.90
2022-08-10T08:43:00.023Z,99.90
2022-08-10T08:46:00.465Z,99.90
2022-08-10T08:48:55.928Z,99.90
2022-08-10T08:52:16.916Z,99.90
2022-08-10T08:54:41.224Z,99.90
2022-08-10T08:57:50.162Z,99.90
2022-08-10T09:00:43.807Z,99.90
2022-08-10T09:03:43.431Z,99.90
2022-08-10T09:06:39.882Z,99.90
2022-08-10T09:09:12.364Z,99.90
2022-08-10T09:12:07.088Z,99.90
2022-08-10T09:14:59.802Z,99.90
2022-08-10T09:17:43.121Z,99.90
2022-08-10T09:20:41.255Z,99.90
2022-08-10T09:24:04.118Z,99.90
2022-08-10T09:26:52.703Z,99.90
2022-08-10T09:29:33.309Z,99.90
2022-08-10T09:36:15.323Z,99.90
2022-08-10T09:36:22.104Z,99.90
2022-08-10T09:38:49.849Z,99.90
2022-08-10T09:41:29.302Z,99.90
2022-08-10T09:44:09.701Z,99.90
2022-08-10T09:46:48.462Z,99.90
2022-08-10T09:49:54.027Z,99.90
2022-08-10T09:52:38.526Z,99.90
2022-08-10T09:56:17.324Z,99.90
2022-08-10T09:58:47.478Z,99.90
2022-08-10T10:01:57.920Z,99.90
2022-08-10T10:04:26.180Z,99.90
2022-08-10T10:07:06.026Z,99.90
2022-08-10T10:10:07.743Z,99.90
2022-08-10T10:12:55.395Z,99.90
2022-08-10T10:16:03.632Z,99.90
2022-08-10T10:18:49.591Z,99.90
2022-08-10T10:21:55.405Z,99.90
2022-08-10T10:24:35.226Z,99.90
2022-08-10T10:27:17.807Z,99.90
2022-08-10T10:29:59.827Z,99.90
2022-08-10T10:32:45.195Z,99.90
2022-08-10T10:35:19.179Z,99.90
2022-08-10T10:38:01.065Z,99.90
2022-08-10T10:40:42.289Z,99.90
2022-08-10T10:43:26.274Z,99.90
2022-08-10T10:46:05.131Z,99.90
2022-08-10T10:48:53.189Z,99.90
2022-08-10T10:51:37.585Z,99.90
2022-08-10T10:54:07.301Z,99.90
2022-08-10T10:57:10.619Z,99.90
2022-08-10T10:59:55.203Z,99.90
2022-08-10T11:02:40.216Z,99.90
2022-08-10T11:05:19.281Z,99.90
2022-08-10T11:08:01.281Z,99.90
2022-08-10T11:10:41.164Z,99.90
2022-08-10T11:14:24.896Z,99.90
2022-08-10T11:16:43.554Z,99.90
2022-08-10T11:20:01.298Z,99.90
2022-08-10T11:22:20.916Z,99.90
2022-08-10T11:25:27.125Z,99.90
2022-08-10T11:28:20.625Z,99.90
2022-08-10T11:31:01.812Z,99.90
2022-08-10T11:34:46.601Z,99.90
2022-08-10T11:36:53.883Z,99.90
2022-08-10T11:39:51.310Z,99.90
2022-08-10T11:43:03.281Z,99.90
2022-08-10T11:45:35.337Z,99.90
2022-08-10T11:48:07.898Z,99.90
2022-08-10T11:50:48.191Z,99.90
2022-08-10T11:53:28.467Z,99.90
2022-08-10T11:56:11.358Z,99.90
2022-08-10T11:59:16.842Z,99.90
2022-08-10T12:01:47.149Z,99.90
2022-08-10T12:04:16.266Z,99.90
2022-08-10T12:06:55.655Z,99.90
2022-08-10T12:10:09.588Z,99.90
2022-08-10T12:12:13.437Z,99.90
2022-08-10T12:15:15.514Z,99.90
2022-08-10T12:17:53.610Z,99.40
2022-08-10T12:20:37.398Z,97.30
2022-08-10T12:23:19.343Z,96.20
2022-08-10T12:25:58.326Z,94.80
2022-08-10T12:28:50.785Z,93.70
2022-08-10T12:31:25.227Z,92.70
2022-08-10T12:34:03.168Z,92.30
2022-08-10T12:36:48.164Z,90.30
2022-08-10T12:39:52.362Z,89.00
2022-08-10T12:42:37.023Z,85.20
2022-08-10T12:45:37.438Z,82.10
2022-08-10T12:48:08.397Z,80.20
2022-08-10T12:50:52.697Z,77.40
2022-08-10T12:53:44.548Z,75.50
2022-08-10T12:56:19.055Z,75.80
2022-08-10T12:59:00.086Z,77.10
2022-08-10T13:02:06.849Z,75.90
2022-08-10T13:04:29.756Z,75.20
2022-08-10T13:07:00.574Z,74.50
2022-08-10T13:09:29.403Z,74.70
2022-08-10T13:12:39.039Z,74.70
2022-08-10T13:15:03.825Z,75.00
2022-08-10T13:17:52.762Z,74.80
2022-08-10T13:20:34.219Z,75.40
2022-08-10T13:23:10.104Z,76.10
2022-08-10T13:25:39.682Z,77.20
2022-08-10T13:28:37.359Z,75.90
2022-08-10T13:31:05.378Z,74.80
2022-08-10T13:34:39.390Z,71.60
2022-08-10T13:36:29.371Z,70.60
2022-08-10T13:38:58.052Z,69.90
2022-08-10T13:41:46.402Z,70.00
2022-08-10T13:44:20.143Z,69.10
2022-08-10T13:46:51.542Z,70.80
2022-08-10T13:49:20.579Z,72.00
2022-08-10T13:51:57.111Z,73.60
2022-08-10T13:54:28.619Z,75.40
2022-08-10T13:56:56.762Z,74.60
2022-08-10T14:00:37.097Z,76.30
2022-08-10T14:02:31.267Z,78.30
2022-08-10T14:04:58.969Z,80.20
2022-08-10T14:07:27.642Z,82.50
2022-08-10T14:10:07.045Z,84.60
2022-08-10T14:12:41.352Z,86.20
2022-08-10T14:15:16.101Z,88.10
2022-08-10T14:17:45.691Z,88.90
2022-08-10T14:20:20.847Z,89.80
2022-08-10T14:22:50.066Z,89.50
2022-08-10T14:25:17.344Z,89.50
2022-08-10T14:28:02.350Z,89.40
2022-08-10T14:30:33.768Z,88.30
2022-08-10T14:33:04.732Z,86.90
2022-08-10T14:36:18.837Z,85.80
2022-08-10T14:38:32.071Z,84.70
2022-08-10T14:41:02.343Z,84.90
2022-08-10T14:43:41.750Z,84.90
2022-08-10T14:46:12.751Z,84.70
2022-08-10T14:48:47.386Z,85.20
2022-08-10T14:51:18.142Z,85.60
2022-08-10T14:53:54.278Z,85.10
2022-08-10T14:56:34.933Z,84.50
2022-08-10T14:59:07.741Z,84.10
2022-08-10T15:02:01.172Z,82.20
2022-08-10T15:04:30.397Z,81.80
2022-08-10T15:07:12.127Z,80.70
2022-08-10T15:10:00.807Z,79.50
2022-08-10T15:12:38.658Z,77.40
2022-08-10T15:15:15.574Z,76.70
2022-08-10T15:17:52.783Z,75.10
2022-08-10T15:20:24.461Z,74.10
2022-08-10T15:23:30.889Z,74.80
2022-08-10T15:26:10.944Z,75.00
2022-08-10T15:29:22.422Z,74.90
2022-08-10T15:31:34.624Z,75.30
2022-08-10T15:34:28.839Z,76.00
2022-08-10T15:37:40.882Z,77.00
2022-08-10T15:40:21.171Z,78.70
2022-08-10T15:43:05.353Z,81.80
2022-08-10T15:46:00.679Z,84.00
2022-08-10T15:48:32.751Z,85.20
2022-08-10T15:51:10.505Z,86.30
2022-08-10T15:53:50.712Z,87.50
2022-08-10T15:56:28.359Z,88.60
2022-08-10T15:59:08.001Z,89.50
2022-08-10T16:02:04.141Z,90.00
2022-08-10T16:04:32.324Z,90.40
2022-08-10T16:07:02.636Z,90.80
2022-08-10T16:10:26.763Z,91.10
2022-08-10T16:12:44.786Z,91.30
2022-08-10T16:15:28.531Z,91.30
2022-08-10T16:18:04.724Z,91.60
2022-08-10T16:20:47.947Z,91.50
2022-08-10T16:23:26.096Z,91.60
2022-08-10T16:26:15.633Z,91.80
2022-08-10T16:28:55.172Z,91.90
2022-08-10T16:31:26.377Z,91.90
2022-08-10T16:33:56.591Z,91.90
2022-08-10T16:36:40.084Z,91.80
2022-08-10T16:39:08.270Z,91.70
2022-08-10T16:42:04.593Z,91.80
2022-08-10T16:44:51.177Z,91.80
2022-08-10T16:47:27.146Z,91.60
2022-08-10T16:49:58.462Z,91.50
2022-08-10T16:52:29.238Z,91.60
2022-08-10T16:55:17.147Z,91.80
2022-08-10T16:57:53.034Z,92.10
2022-08-10T17:00:22.601Z,92.20
2022-08-10T17:02:52.859Z,92.40
2022-08-10T17:06:03.646Z,92.80
2022-08-10T17:08:17.701Z,93.40
2022-08-10T17:10:44.976Z,94.40
2022-08-10T17:13:15.113Z,94.90
2022-08-10T17:15:56.707Z,95.30
2022-08-10T17:18:27.992Z,95.50
2022-08-10T17:21:01.591Z,95.60
2022-08-10T17:23:33.808Z,95.90
2022-08-10T17:26:07.597Z,96.50
2022-08-10T17:28:38.853Z,96.80
2022-08-10T17:31:23.961Z,97.20
2022-08-10T17:34:11.924Z,97.70
2022-08-10T17:36:41.586Z,98.00
2022-08-10T17:39:12.893Z,98.40
2022-08-10T17:41:42.342Z,98.60
2022-08-10T17:44:10.203Z,98.70
2022-08-10T17:46:39.202Z,99.00
2022-08-10T17:49:09.318Z,99.10
2022-08-10T17:51:38.257Z,99.40
2022-08-10T17:54:09.186Z,99.70
2022-08-10T17:56:38.043Z,99.90
2022-08-10T17:59:16.836Z,99.90
2022-08-10T18:02:01.525Z,99.90
2022-08-10T18:04:41.346Z,99.90
2022-08-10T18:07:11.676Z,99.90
2022-08-10T18:09:47.634Z,99.90
2022-08-10T18:12:18.789Z,99.90
2022-08-10T18:14:50.083Z,99.90
2022-08-10T18:17:38.478Z,99.90
2022-08-10T18:20:08.966Z,99.90
2022-08-10T18:22:47.530Z,99.90
2022-08-10T18:25:30.155Z,99.90
2022-08-10T18:28:03.626Z,99.90
2022-08-10T18:30:36.282Z,99.90
2022-08-10T18:33:04.898Z,99.90
2022-08-10T18:35:34.743Z,99.90
2022-08-10T18:38:04.142Z,99.90
2022-08-10T18:40:35.497Z,99.90
2022-08-10T18:44:05.976Z,99.90
2022-08-10T18:45:57.168Z,99.90
2022-08-10T18:48:33.216Z,99.90
2022-08-10T18:51:05.976Z,99.90
2022-08-10T18:53:35.942Z,99.90
2022-08-10T18:56:22.834Z,99.90
2022-08-10T18:59:03.092Z,99.90
2022-08-10T19:02:00.281Z,99.90
2022-08-10T19:04:49.212Z,99.90
2022-08-10T19:07:27.151Z,99.90
2022-08-10T19:10:36.065Z,99.90
2022-08-10T19:13:40.206Z,99.90
2022-08-10T19:16:42.692Z,99.90
2022-08-10T19:19:48.369Z,99.90
2022-08-10T19:22:17.603Z,99.90
2022-08-10T19:24:57.310Z,99.90
2022-08-10T19:27:42.030Z,99.90
2022-08-10T19:30:14.690Z,99.90
2022-08-10T19:32:44.827Z,99.90
2022-08-10T19:35:25.206Z,99.90
2022-08-10T19:38:04.041Z,99.90
2022-08-10T19:40:46.965Z,99.90
2022-08-10T19:43:59.423Z,99.90
2022-08-10T19:46:25.916Z,99.90
2022-08-10T19:49:06.076Z,99.90
2022-08-10T19:52:10.870Z,99.90
2022-08-10T19:55:01.628Z,99.90
2022-08-10T19:57:36.117Z,99.90
2022-08-10T20:00:18.801Z,99.90
2022-08-10T20:03:08.099Z,99.90
2022-08-10T20:06:13.326Z,99.90
2022-08-10T20:09:30.009Z,99.90
2022-08-10T20:12:06.747Z,99.90
2022-08-10T20:15:03.622Z,99.90
2022-08-10T20:17:51.338Z,99.90
2022-08-10T20:20:40.868Z,99.90
2022-08-10T20:23:23.491Z,99.90
2022-08-10T20:26:14.953Z,99.90
2022-08-10T20:29:06.964Z,99.90
2022-08-10T20:31:42.992Z,99.90
2022-08-10T20:34:22.631Z,99.90
2022-08-10T20:37:12.384Z,99.90
2022-08-10T20:40:08.037Z,99.90
2022-08-10T20:43:05.980Z,99.90
2022-08-10T20:46:08.336Z,99.90
2022-08-10T20:49:02.432Z,99.90
2022-08-10T20:51:58.017Z,99.90
2022-08-10T20:54:33.133Z,99.90
2022-08-10T20:57:55.567Z,99.90
2022-08-10T21:00:12.633Z,99.90
2022-08-10T21:02:53.622Z,99.90
2022-08-10T21:05:28.816Z,99.90
2022-08-10T21:08:19.386Z,99.90
2022-08-10T21:11:04.695Z,99.90
2022-08-10T21:14:05.024Z,99.90
2022-08-10T21:16:47.590Z,99.90
2022-08-10T21:19:53.485Z,99.90
2022-08-10T21:22:29.327Z,99.90
2022-08-10T21:25:15.427Z,99.90
2022-08-10T21:27:46.939Z,99.90
2022-08-10T21:30:28.770Z,99.90
2022-08-10T21:33:07.981Z,99.90
2022-08-10T21:35:56.447Z,99.90
2022-08-10T21:38:52.338Z,99.90
2022-08-10T21:42:06.902Z,99.90
2022-08-10T21:45:58.073Z,99.90
2022-08-10T21:49:02.101Z,99.90
2022-08-10T21:52:08.070Z,99.90
2022-08-10T21:55:21.634Z,99.90
2022-08-10T21:58:09.703Z,99.90
2022-08-10T22:04:04.526Z,99.90
2022-08-10T22:06:54.916Z,99.90
2022-08-10T22:09:47.330Z,99.90
2022-08-10T22:12:36.181Z,99.90
2022-08-10T22:16:03.214Z,99.90
2022-08-10T22:18:45.279Z,99.90
2022-08-10T22:22:30.469Z,99.90
2022-08-10T22:25:33.598Z,99.90
2022-08-10T22:28:18.871Z,99.90
2022-08-10T22:31:32.183Z,99.90
2022-08-10T22:34:33.138Z,99.90
2022-08-10T22:37:36.968Z,99.90
2022-08-10T22:40:25.289Z,99.90
2022-08-10T22:43:14.017Z,99.90
2022-08-10T22:46:25.151Z,99.90
2022-08-10T22:49:01.185Z,99.90
2022-08-10T22:51:35.018Z,99.90
2022-08-10T22:54:43.585Z,99.90
2022-08-10T22:57:34.074Z,99.90
2022-08-10T23:00:31.703Z,99.90
2022-08-10T23:03:22.070Z,99.90
2022-08-10T23:06:00.299Z,99.90
2022-08-10T23:08:48.231Z,99.90
2022-08-10T23:11:28.813Z,99.90
2022-08-10T23:14:09.957Z,99.90
2022-08-10T23:17:06.007Z,99.90
2022-08-10T23:19:40.932Z,99.90
2022-08-10T23:22:09.411Z,99.90
2022-08-10T23:24:51.059Z,99.90
2022-08-10T23:27:37.476Z,99.90
2022-08-10T23:30:17.894Z,99.90
2022-08-10T23:32:52.009Z,99.90
2022-08-10T23:36:30.313Z,99.90
2022-08-10T23:38:12.279Z,99.90
2022-08-10T23:40:45.361Z,99.90
2022-08-10T23:43:21.482Z,99.90
2022-08-10T23:45:57.394Z,99.90
2022-08-10T23:48:29.649Z,99.90
2022-08-10T23:51:01.275Z,99.90
2022-08-10T23:53:36.966Z,99.90
2022-08-10T23:56:08.825Z,99.90
2022-08-10T23:58:40.810Z,99.90
